Time;durP1;ratioP1;P1;durP2;ratioP2;P2;SDS_P1;SDS_P2;PMS_P1;PMS_P2;Temp;Humidity;BMP_temperature;BMP_pressure;BME280_temperature;BME280_humidity;BME280_pressure;Samples;Min_cycle;Max_cycle;Signal;HPM_P1;HPM_P2
2023/01/20 00:00:46;;;;;;;7.18;3.38;;;-0.30;99.90;;;;;;4986525;28;20293;-62
2023/01/20 00:03:11;;;;;;;6.00;3.17;;;2.00;99.90;;;;;;4986947;28;20323;-61
2023/01/20 00:05:37;;;;;;;8.98;3.83;;;-0.80;99.90;;;;;;4987704;28;20054;-61
2023/01/20 00:08:03;;;;;;;8.23;3.65;;;-0.50;99.90;;;;;;4988320;28;20399;-61
2023/01/20 00:10:28;;;;;;;4.63;2.92;;;-0.20;99.90;;;;;;4987973;28;20069;-61
2023/01/20 00:12:54;;;;;;;6.57;3.08;;;0.60;99.90;;;;;;4988786;28;20055;-60
2023/01/20 00:15:20;;;;;;;6.05;3.10;;;-0.40;99.90;;;;;;4986461;28;20060;-61
2023/01/20 00:17:45;;;;;;;6.75;3.10;;;1.00;99.90;;;;;;4988121;28;20309;-60
2023/01/20 00:20:11;;;;;;;8.10;3.50;;;1.00;99.90;;;;;;4987644;28;20038;-61
2023/01/20 00:22:41;;;;;;;7.50;3.33;;;-0.80;99.90;;;;;;4987870;28;20066;-61
2023/01/20 00:25:08;;;;;;;5.63;3.45;;;-0.70;99.90;;;;;;4987797;28;20044;-60
2023/01/20 00:27:34;;;;;;;11.00;3.65;;;-0.80;99.90;;;;;;4988235;28;20069;-60
2023/01/20 00:29:59;;;;;;;8.68;4.03;;;-0.70;99.90;;;;;;4986636;28;20046;-62
2023/01/20 00:32:25;;;;;;;9.30;4.53;;;-0.20;99.90;;;;;;4987773;28;20511;-62
2023/01/20 00:34:51;;;;;;;8.43;3.40;;;-0.30;99.90;;;;;;4979752;28;20561;-60
2023/01/20 00:37:16;;;;;;;7.35;3.03;;;-0.10;99.90;;;;;;5007280;28;20407;-60
2023/01/20 00:39:42;;;;;;;6.00;2.90;;;0.40;99.90;;;;;;5006933;28;20049;-61
2023/01/20 00:42:07;;;;;;;6.28;2.95;;;-0.40;99.90;;;;;;5007118;28;20042;-62
2023/01/20 00:44:33;;;;;;;5.32;2.67;;;-0.70;99.90;;;;;;5008009;28;20034;-59
2023/01/20 00:46:59;;;;;;;4.03;2.40;;;-0.20;99.90;;;;;;5007015;28;20046;-60
2023/01/20 00:49:24;;;;;;;5.35;2.75;;;0.10;99.90;;;;;;5006867;28;20072;-62
2023/01/20 00:51:50;;;;;;;7.68;3.08;;;-0.50;99.90;;;;;;5006431;28;20038;-62
2023/01/20 00:54:16;;;;;;;5.68;2.90;;;-0.50;99.90;;;;;;5006878;28;20050;-62
2023/01/20 00:56:41;;;;;;;5.57;2.63;;;-0.70;99.90;;;;;;5006379;28;20049;-61
2023/01/20 00:59:09;;;;;;;5.45;3.17;;;-0.30;99.90;;;;;;5007459;28;20124;-60
2023/01/20 01:01:34;;;;;;;7.78;3.40;;;-0.80;99.90;;;;;;5007277;28;20081;-62
2023/01/20 01:04:00;;;;;;;7.80;3.78;;;-0.90;99.90;;;;;;5006312;28;20077;-62
2023/01/20 01:06:26;;;;;;;7.53;3.30;;;-0.90;99.90;;;;;;5006338;28;20046;-62
2023/01/20 01:08:51;;;;;;;4.95;3.50;;;-0.20;99.90;;;;;;5006361;28;20042;-62
2023/01/20 01:11:17;;;;;;;6.50;3.50;;;-0.90;99.90;;;;;;5006239;28;20045;-61
2023/01/20 01:13:43;;;;;;;4.50;3.03;;;-0.30;99.90;;;;;;5005512;28;20050;-59
2023/01/20 01:16:11;;;;;;;7.13;3.58;;;-0.60;99.90;;;;;;5006895;28;20050;-59
2023/01/20 01:18:37;;;;;;;6.18;4.00;;;-0.80;99.90;;;;;;5006977;28;20042;-62
2023/01/20 01:21:07;;;;;;;8.57;4.25;;;-1.00;99.90;;;;;;5005461;28;20061;-62
2023/01/20 01:23:33;;;;;;;7.78;4.35;;;-0.80;99.90;;;;;;5006336;28;20107;-62
2023/01/20 01:25:59;;;;;;;8.18;5.05;;;0.00;99.90;;;;;;5006501;28;20049;-62
2023/01/20 01:28:25;;;;;;;6.57;4.43;;;-0.40;99.90;;;;;;5006118;28;20049;-61
2023/01/20 01:30:51;;;;;;;7.15;5.18;;;0.30;99.90;;;;;;5006715;28;20053;-61
2023/01/20 01:33:16;;;;;;;8.25;5.63;;;-0.10;99.90;;;;;;5006465;28;20509;-61
2023/01/20 01:35:42;;;;;;;8.63;5.90;;;-0.90;99.90;;;;;;5005193;28;20045;-62
2023/01/20 01:38:08;;;;;;;13.45;6.38;;;-0.80;99.90;;;;;;5006641;28;20491;-62
2023/01/20 01:40:34;;;;;;;9.27;5.97;;;0.00;99.90;;;;;;5006226;28;20179;-62
2023/01/20 01:43:00;;;;;;;11.13;6.97;;;-0.80;99.90;;;;;;5006345;28;20487;-61
2023/01/20 01:45:28;;;;;;;9.13;5.97;;;1.00;99.90;;;;;;5005632;28;20081;-61
2023/01/20 01:48:12;;;;;;;11.25;6.72;;;-0.60;99.90;;;;;;5006072;28;20041;-62
2023/01/20 01:50:53;;;;;;;12.50;7.93;;;-0.10;99.90;;;;;;5005099;28;20052;-61
2023/01/20 01:53:19;;;;;;;13.27;8.45;;;-0.10;99.90;;;;;;5006124;28;20061;-62
2023/01/20 01:55:49;;;;;;;16.90;9.95;;;-0.70;99.90;;;;;;5004061;28;20053;-62
2023/01/20 01:58:18;;;;;;;14.35;7.55;;;-0.10;99.90;;;;;;5004600;28;20038;-59
2023/01/20 02:03:20;;;;;;;13.90;8.43;;;0.00;99.90;;;;;;5002891;28;20494;-60
2023/01/20 02:05:48;;;;;;;17.60;11.00;;;0.10;99.90;;;;;;5006590;28;20037;-61
2023/01/20 02:08:13;;;;;;;16.85;10.38;;;1.60;99.90;;;;;;5006891;28;20062;-62
2023/01/20 02:10:39;;;;;;;15.07;10.13;;;0.50;99.90;;;;;;5004188;28;20046;-61
2023/01/20 02:13:05;;;;;;;16.75;11.27;;;-0.40;99.90;;;;;;5005756;28;20188;-61
2023/01/20 02:16:06;;;;;;;16.05;10.85;;;-0.30;99.90;;;;;;5005939;28;20063;-61
2023/01/20 02:18:38;;;;;;;17.95;11.73;;;-0.70;99.90;;;;;;4985705;28;20054;-61
2023/01/20 02:21:09;;;;;;;16.05;10.88;;;0.00;99.90;;;;;;5003662;28;20041;-61
2023/01/20 02:24:16;;;;;;;17.88;12.10;;;-0.50;99.90;;;;;;5005582;28;20446;-61
2023/01/20 02:27:38;;;;;;;17.42;9.23;;;-0.70;99.90;;;;;;5004583;28;20057;-61
2023/01/20 02:30:09;;;;;;;19.05;11.40;;;0.10;99.90;;;;;;4963444;28;20168;-61
2023/01/20 02:32:42;;;;;;;17.17;10.98;;;-0.20;99.90;;;;;;5003772;28;20054;-59
2023/01/20 02:35:20;;;;;;;19.50;11.32;;;0.40;99.90;;;;;;5004778;28;20045;-61
2023/01/20 02:37:56;;;;;;;16.30;10.85;;;-0.70;99.90;;;;;;5005445;28;20085;-61
2023/01/20 02:40:32;;;;;;;16.77;10.07;;;-0.50;99.90;;;;;;5004622;28;20049;-61
2023/01/20 02:43:13;;;;;;;19.15;11.57;;;0.10;99.90;;;;;;5005247;28;20153;-61
2023/01/20 02:45:48;;;;;;;20.20;12.35;;;0.10;99.90;;;;;;4989149;28;20411;-61
2023/01/20 02:48:54;;;;;;;18.95;10.70;;;0.40;99.90;;;;;;4985831;28;20046;-61
2023/01/20 02:51:26;;;;;;;;;;;-0.10;99.90;;;;;;4984733;28;20407;-61
2023/01/20 02:53:57;;;;;;;18.40;10.95;;;0.10;99.90;;;;;;4985364;28;20286;-58
2023/01/20 02:56:27;;;;;;;18.27;11.57;;;0.60;99.90;;;;;;4985483;28;20106;-62
2023/01/20 02:59:04;;;;;;;13.85;8.35;;;-0.60;99.90;;;;;;4985334;28;20050;-59
2023/01/20 03:01:35;;;;;;;22.15;14.02;;;-0.70;99.90;;;;;;4984586;28;20182;-60
2023/01/20 03:04:03;;;;;;;19.80;12.70;;;0.10;99.90;;;;;;4984126;28;20346;-61
2023/01/20 03:06:36;;;;;;;17.80;10.02;;;-0.10;99.90;;;;;;4985038;28;20053;-62
2023/01/20 03:09:07;;;;;;;23.27;14.15;;;0.40;99.90;;;;;;4985428;28;20487;-62
2023/01/20 03:11:39;;;;;;;21.30;12.88;;;-0.20;99.90;;;;;;4985211;28;20096;-60
2023/01/20 03:14:09;;;;;;;18.95;11.98;;;1.00;99.90;;;;;;4984500;28;20155;-62
2023/01/20 03:16:36;;;;;;;19.67;13.18;;;-0.20;99.90;;;;;;4985159;28;20494;-61
2023/01/20 03:19:02;;;;;;;23.00;14.45;;;-0.20;99.90;;;;;;4984763;28;20080;-61
2023/01/20 03:21:28;;;;;;;18.17;13.15;;;0.90;99.90;;;;;;4984203;28;20105;-61
2023/01/20 03:23:58;;;;;;;19.33;12.57;;;0.20;99.90;;;;;;4984842;28;20177;-61
2023/01/20 03:26:24;;;;;;;19.52;13.73;;;-0.40;99.90;;;;;;4984553;28;20038;-60
2023/01/20 03:28:50;;;;;;;20.67;13.07;;;0.30;99.90;;;;;;4984345;28;20042;-62
2023/01/20 03:31:27;;;;;;;19.58;13.40;;;0.60;99.90;;;;;;4984949;28;20402;-59
2023/01/20 03:33:56;;;;;;;20.05;13.32;;;0.30;99.90;;;;;;4984301;28;20061;-61
2023/01/20 03:36:24;;;;;;;18.05;10.25;;;-0.20;99.90;;;;;;4983468;28;20473;-61
2023/01/20 03:38:51;;;;;;;19.88;12.68;;;0.20;99.90;;;;;;4984867;28;20042;-62
2023/01/20 03:41:36;;;;;;;14.95;9.73;;;1.70;99.90;;;;;;4985050;28;20050;-62
2023/01/20 03:44:30;;;;;;;20.27;13.48;;;0.00;99.90;;;;;;4984984;28;20057;-61
2023/01/20 03:46:56;;;;;;;18.70;13.57;;;0.10;99.90;;;;;;4984325;28;20085;-62
2023/01/20 03:49:51;;;;;;;18.60;11.77;;;-0.60;99.90;;;;;;4983928;28;20522;-62
2023/01/20 03:52:43;;;;;;;18.80;12.15;;;0.20;99.90;;;;;;4984862;28;20050;-62
2023/01/20 03:55:22;;;;;;;18.52;12.75;;;0.20;99.90;;;;;;4984098;28;20061;-62
2023/01/20 03:58:03;;;;;;;18.23;13.52;;;-0.40;99.90;;;;;;4984423;28;20509;-62
2023/01/20 04:00:33;;;;;;;13.10;7.43;;;0.20;99.90;;;;;;4984119;28;20392;-61
2023/01/20 04:03:02;;;;;;;13.82;9.15;;;-0.30;99.90;;;;;;4984058;28;20518;-62
2023/01/20 04:05:28;;;;;;;21.02;14.02;;;-0.40;99.90;;;;;;4983733;28;20042;-62
2023/01/20 04:07:58;;;;;;;18.83;13.07;;;-0.30;99.90;;;;;;4983922;28;20077;-59
2023/01/20 04:10:26;;;;;;;19.90;13.48;;;1.50;99.90;;;;;;4984240;28;20093;-61
2023/01/20 04:12:51;;;;;;;21.08;12.70;;;-0.10;99.90;;;;;;4984516;28;20053;-61
2023/01/20 04:15:18;;;;;;;21.60;14.07;;;0.30;99.90;;;;;;4984158;28;20038;-62
2023/01/20 04:17:44;;;;;;;19.48;11.13;;;0.60;99.90;;;;;;4984804;28;20089;-62
2023/01/20 04:20:14;;;;;;;17.55;7.95;;;0.30;99.90;;;;;;4982439;28;20082;-61
2023/01/20 04:22:58;;;;;;;21.23;14.98;;;-0.60;99.90;;;;;;4983743;28;20051;-62
2023/01/20 04:25:23;;;;;;;23.60;16.20;;;-0.20;99.90;;;;;;4984570;28;20052;-61
2023/01/20 04:27:49;;;;;;;25.15;17.08;;;0.50;99.90;;;;;;4983217;28;20499;-61
2023/01/20 04:30:15;;;;;;;25.02;15.52;;;0.40;99.90;;;;;;4984047;28;20049;-61
2023/01/20 04:32:40;;;;;;;26.42;17.48;;;0.10;99.90;;;;;;4982905;28;20045;-61
2023/01/20 04:35:06;;;;;;;27.13;17.42;;;0.10;99.90;;;;;;4983531;28;20045;-61
2023/01/20 04:37:32;;;;;;;15.68;9.55;;;-0.50;99.90;;;;;;4983791;28;20154;-61
2023/01/20 04:39:57;;;;;;;20.35;13.02;;;-0.30;99.90;;;;;;4984311;28;20042;-61
2023/01/20 04:42:23;;;;;;;25.02;16.42;;;-0.40;99.90;;;;;;4984354;28;20050;-61
2023/01/20 04:44:49;;;;;;;23.88;14.32;;;0.70;99.90;;;;;;4967923;28;20054;-60
2023/01/20 04:47:14;;;;;;;26.65;15.90;;;-0.50;99.90;;;;;;4987759;28;20047;-60
2023/01/20 04:49:40;;;;;;;26.73;15.68;;;0.10;99.90;;;;;;4987098;28;20126;-61
2023/01/20 04:52:06;;;;;;;27.95;17.58;;;0.10;99.90;;;;;;4987439;28;20054;-62
2023/01/20 04:54:31;;;;;;;28.35;18.13;;;-0.40;99.90;;;;;;4987433;28;20041;-60
2023/01/20 04:56:57;;;;;;;24.85;15.15;;;-0.20;99.90;;;;;;4987591;28;20042;-61
2023/01/20 04:59:23;;;;;;;25.95;16.27;;;0.00;99.90;;;;;;4987622;28;20503;-62
2023/01/20 05:01:48;;;;;;;28.95;19.02;;;0.20;99.90;;;;;;4987298;28;20076;-61
2023/01/20 05:04:14;;;;;;;28.88;17.85;;;-0.70;99.90;;;;;;4986695;28;20042;-61
2023/01/20 05:06:42;;;;;;;25.75;14.52;;;0.40;99.90;;;;;;4987400;28;20050;-62
2023/01/20 05:09:12;;;;;;;21.70;12.55;;;-0.70;99.90;;;;;;4986943;28;20077;-60
2023/01/20 05:11:38;;;;;;;24.85;14.75;;;0.00;99.90;;;;;;4987197;28;20042;-61
2023/01/20 05:14:04;;;;;;;27.55;18.13;;;-0.10;99.90;;;;;;4987333;28;20038;-62
2023/01/20 05:16:30;;;;;;;31.02;18.48;;;-0.20;99.90;;;;;;4987112;28;20082;-62
2023/01/20 05:18:56;;;;;;;31.65;19.65;;;0.60;99.90;;;;;;4986356;28;20039;-62
2023/01/20 05:21:22;;;;;;;21.02;10.48;;;1.30;99.90;;;;;;4987278;28;20235;-62
2023/01/20 05:23:48;;;;;;;30.73;17.38;;;-0.80;99.90;;;;;;4986213;28;20046;-62
2023/01/20 05:26:13;;;;;;;30.05;18.55;;;0.00;99.90;;;;;;4986585;28;20513;-61
2023/01/20 05:28:41;;;;;;;21.35;11.60;;;0.90;99.90;;;;;;4987179;28;20140;-62
2023/01/20 05:31:07;;;;;;;22.27;13.82;;;0.00;99.90;;;;;;4987004;28;20137;-59
2023/01/20 05:33:33;;;;;;;18.95;11.50;;;0.10;99.90;;;;;;4986118;28;20485;-61
2023/01/20 05:35:58;;;;;;;21.23;12.52;;;0.30;99.90;;;;;;4986227;28;20222;-61
2023/01/20 05:38:24;;;;;;;25.45;14.00;;;0.00;99.90;;;;;;4986802;28;20046;-60
2023/01/20 05:40:57;;;;;;;27.95;16.63;;;0.40;99.90;;;;;;4986719;28;20051;-59
2023/01/20 05:43:22;;;;;;;29.20;17.45;;;0.20;99.90;;;;;;4986926;28;20053;-60
2023/01/20 05:45:48;;;;;;;23.90;12.70;;;-0.20;99.90;;;;;;4986880;28;20042;-61
2023/01/20 05:48:14;;;;;;;27.40;17.35;;;0.60;99.90;;;;;;4984998;28;20504;-59
2023/01/20 05:50:39;;;;;;;21.52;12.25;;;1.00;99.90;;;;;;4985953;28;20042;-59
2023/01/20 05:53:05;;;;;;;29.17;18.88;;;-0.70;99.90;;;;;;4986891;28;20070;-61
2023/01/20 05:55:31;;;;;;;20.23;11.23;;;-0.40;99.90;;;;;;4986297;28;20045;-62
2023/01/20 05:57:59;;;;;;;25.92;16.23;;;-0.60;99.90;;;;;;4986089;28;20047;-61
2023/01/20 06:00:25;;;;;;;24.83;15.45;;;2.30;99.90;;;;;;4986452;28;20046;-60
2023/01/20 06:02:50;;;;;;;24.35;14.68;;;0.00;99.90;;;;;;4986422;28;20061;-61
2023/01/20 06:05:16;;;;;;;25.85;14.65;;;-0.40;99.90;;;;;;4985446;28;20056;-61
2023/01/20 06:07:42;;;;;;;22.63;13.63;;;-0.50;99.90;;;;;;4986132;28;20111;-61
2023/01/20 06:10:08;;;;;;;25.13;13.90;;;-0.30;99.90;;;;;;4986248;28;20475;-60
2023/01/20 06:12:34;;;;;;;25.05;14.93;;;-0.10;99.90;;;;;;4985806;28;20072;-60
2023/01/20 06:14:59;;;;;;;23.08;13.60;;;-0.10;99.90;;;;;;4985879;28;20030;-58
2023/01/20 06:17:25;;;;;;;22.80;12.73;;;2.00;99.90;;;;;;4986185;28;20068;-61
2023/01/20 06:19:51;;;;;;;25.38;16.38;;;0.40;99.90;;;;;;4985777;28;20469;-60
2023/01/20 06:22:19;;;;;;;23.35;14.50;;;-0.70;99.90;;;;;;4985543;28;20430;-61
2023/01/20 06:24:44;;;;;;;22.25;13.18;;;0.30;99.90;;;;;;4985958;28;20054;-60
2023/01/20 06:27:10;;;;;;;22.63;14.15;;;0.60;99.90;;;;;;4986199;28;20494;-61
2023/01/20 06:29:36;;;;;;;23.88;14.85;;;-0.20;99.90;;;;;;4985497;28;20108;-62
2023/01/20 06:32:01;;;;;;;21.50;11.70;;;-0.60;99.90;;;;;;4985436;28;20491;-59
2023/01/20 06:34:27;;;;;;;19.17;12.18;;;-0.30;99.90;;;;;;4985018;28;20487;-62
2023/01/20 06:36:52;;;;;;;18.63;11.88;;;1.50;99.90;;;;;;4985343;28;20046;-61
2023/01/20 06:39:18;;;;;;;20.40;13.25;;;0.00;99.90;;;;;;4985846;28;20050;-61
2023/01/20 06:41:45;;;;;;;21.52;14.07;;;0.00;99.90;;;;;;4985398;28;20487;-62
2023/01/20 06:44:10;;;;;;;24.10;14.50;;;0.60;99.90;;;;;;4985459;28;20049;-61
2023/01/20 06:46:36;;;;;;;21.08;13.77;;;0.00;99.90;;;;;;4984746;28;20038;-60
2023/01/20 06:49:02;;;;;;;15.10;7.97;;;0.00;99.90;;;;;;4985039;28;20130;-61
2023/01/20 06:51:29;;;;;;;21.17;13.90;;;0.20;99.90;;;;;;4985443;28;20054;-60
2023/01/20 06:53:55;;;;;;;23.70;12.75;;;-0.70;99.90;;;;;;4983916;28;20050;-61
2023/01/20 06:56:21;;;;;;;21.30;13.45;;;0.10;99.90;;;;;;4984971;28;20193;-60
2023/01/20 06:58:47;;;;;;;24.08;14.77;;;0.10;99.90;;;;;;4985091;28;20042;-61
2023/01/20 07:01:14;;;;;;;21.92;14.55;;;-0.10;99.90;;;;;;4984431;28;20109;-62
2023/01/20 07:03:43;;;;;;;21.27;13.20;;;0.10;99.90;;;;;;4984541;28;20122;-62
2023/01/20 07:06:29;;;;;;;17.45;9.75;;;0.10;99.90;;;;;;4985217;28;20051;-62
2023/01/20 07:08:55;;;;;;;;;;;0.30;99.90;;;;;;4985253;28;20435;-61
2023/01/20 07:11:21;;;;;;;23.73;15.30;;;0.20;99.90;;;;;;4984921;28;19922;-61
2023/01/20 07:13:47;;;;;;;23.55;13.80;;;-0.60;99.90;;;;;;4984944;28;20052;-62
2023/01/20 07:16:13;;;;;;;19.13;11.55;;;0.20;99.90;;;;;;4984534;28;20419;-61
2023/01/20 07:18:39;;;;;;;24.33;14.05;;;0.10;99.90;;;;;;4984141;28;20451;-62
2023/01/20 07:21:05;;;;;;;24.23;14.45;;;-0.10;99.90;;;;;;4984949;28;20050;-58
2023/01/20 07:23:32;;;;;;;25.48;15.13;;;0.20;99.90;;;;;;4984355;28;20046;-61
2023/01/20 07:26:04;;;;;;;22.95;13.50;;;1.20;99.90;;;;;;4984039;28;20043;-61
2023/01/20 07:28:31;;;;;;;23.42;12.20;;;0.00;99.90;;;;;;4985161;28;20396;-59
2023/01/20 07:31:12;;;;;;;24.60;14.75;;;-0.20;99.90;;;;;;4984795;28;20080;-60
2023/01/20 07:33:39;;;;;;;18.05;10.43;;;0.20;99.90;;;;;;4983048;28;20046;-62
2023/01/20 07:36:06;;;;;;;29.00;9.98;;;-0.60;99.90;;;;;;4984233;28;20042;-59
2023/01/20 07:38:32;;;;;;;20.33;11.05;;;-0.50;99.90;;;;;;4984806;28;20038;-62
2023/01/20 07:41:00;;;;;;;23.25;13.55;;;-0.20;99.90;;;;;;4983938;28;20467;-63
2023/01/20 07:43:26;;;;;;;26.33;14.05;;;0.20;99.90;;;;;;4984828;28;20042;-57
2023/01/20 07:45:59;;;;;;;24.38;14.93;;;0.20;99.90;;;;;;4985300;28;20050;-58
2023/01/20 07:48:25;;;;;;;23.13;12.85;;;-0.50;99.90;;;;;;4982924;28;20590;-60
2023/01/20 07:51:04;;;;;;;28.65;16.20;;;0.10;99.90;;;;;;4984312;28;20392;-60
2023/01/20 07:53:31;;;;;;;27.30;17.17;;;-0.50;99.90;;;;;;4985430;28;20402;-60
2023/01/20 07:56:09;;;;;;;27.98;17.27;;;0.20;99.90;;;;;;4984808;28;20052;-64
2023/01/20 07:58:35;;;;;;;25.40;14.10;;;0.20;99.90;;;;;;4984732;28;20455;-60
2023/01/20 08:01:08;;;;;;;26.48;15.23;;;-0.30;99.90;;;;;;4984573;28;20049;-61
2023/01/20 08:03:35;;;;;;;22.55;13.35;;;0.60;99.90;;;;;;4983197;28;20101;-62
2023/01/20 08:06:05;;;;;;;26.67;15.95;;;-0.50;99.90;;;;;;4985030;28;20073;-61
2023/01/20 08:08:31;;;;;;;28.42;16.02;;;0.10;99.90;;;;;;4984895;28;20706;-61
2023/01/20 08:10:58;;;;;;;29.48;18.95;;;-0.50;99.90;;;;;;4984168;28;20039;-62
2023/01/20 08:13:24;;;;;;;24.95;12.70;;;-0.50;99.90;;;;;;4984451;28;20054;-62
2023/01/20 08:15:50;;;;;;;27.85;17.40;;;0.60;99.90;;;;;;4984245;28;20396;-60
2023/01/20 08:18:15;;;;;;;31.90;20.60;;;-0.40;99.90;;;;;;4983451;28;20073;-60
2023/01/20 08:20:41;;;;;;;34.72;21.40;;;1.10;99.90;;;;;;4985273;28;20050;-61
2023/01/20 08:23:07;;;;;;;28.33;16.98;;;0.30;99.90;;;;;;4986636;28;20043;-61
2023/01/20 08:25:32;;;;;;;23.48;13.25;;;0.30;99.90;;;;;;4988503;28;20494;-61
2023/01/20 08:27:58;;;;;;;34.65;21.27;;;0.20;99.90;;;;;;4987976;28;20105;-61
2023/01/20 08:30:24;;;;;;;27.88;16.10;;;0.40;99.90;;;;;;4987881;28;20054;-61
2023/01/20 08:32:49;;;;;;;30.05;17.45;;;0.40;99.90;;;;;;4986660;28;20042;-62
2023/01/20 08:35:15;;;;;;;33.30;18.73;;;-0.20;99.90;;;;;;4986833;28;20042;-62
2023/01/20 08:37:41;;;;;;;39.40;21.63;;;-0.20;99.90;;;;;;4987669;28;20046;-63
2023/01/20 08:40:08;;;;;;;40.65;22.60;;;1.40;99.90;;;;;;4988010;28;20042;-61
2023/01/20 08:42:35;;;;;;;35.10;22.30;;;0.30;99.90;;;;;;4988229;28;20046;-62
2023/01/20 08:45:01;;;;;;;31.50;16.95;;;-0.20;99.90;;;;;;4987906;28;20050;-62
2023/01/20 08:47:27;;;;;;;38.05;23.20;;;-0.10;99.90;;;;;;4987457;28;20125;-62
2023/01/20 08:49:53;;;;;;;38.80;22.63;;;-0.10;99.90;;;;;;4986998;28;20126;-61
2023/01/20 08:52:18;;;;;;;26.15;15.68;;;-0.20;99.90;;;;;;4987480;28;20073;-60
2023/01/20 08:54:44;;;;;;;38.38;21.90;;;0.50;99.90;;;;;;4987733;28;20050;-62
2023/01/20 08:57:10;;;;;;;29.77;17.17;;;0.50;99.90;;;;;;4987469;28;20038;-62
2023/01/20 08:59:36;;;;;;;38.55;22.23;;;0.90;99.90;;;;;;4986948;28;20125;-62
2023/01/20 09:02:01;;;;;;;24.80;11.80;;;0.40;99.90;;;;;;4987515;28;20152;-63
2023/01/20 09:04:27;;;;;;;26.55;12.98;;;0.70;99.90;;;;;;4986931;28;20065;-63
2023/01/20 09:06:53;;;;;;;35.78;19.65;;;1.30;99.90;;;;;;4987399;28;20515;-62
2023/01/20 09:09:21;;;;;;;35.28;21.65;;;1.30;99.90;;;;;;4986912;28;20121;-63
2023/01/20 09:11:50;;;;;;;39.00;21.00;;;0.90;99.90;;;;;;4987316;28;20042;-63
2023/01/20 09:14:21;;;;;;;36.85;21.85;;;0.40;99.90;;;;;;4987109;28;20054;-61
2023/01/20 09:16:47;;;;;;;38.47;23.77;;;0.00;99.90;;;;;;4987018;28;20039;-62
2023/01/20 09:19:13;;;;;;;39.55;22.05;;;1.90;99.90;;;;;;4986504;28;20046;-63
2023/01/20 09:21:39;;;;;;;39.55;20.55;;;0.20;99.90;;;;;;4987143;28;20038;-63
2023/01/20 09:24:05;;;;;;;41.65;25.67;;;0.40;99.90;;;;;;4986959;28;20038;-63
2023/01/20 09:26:37;;;;;;;44.50;27.38;;;0.50;99.90;;;;;;4986976;28;20384;-61
2023/01/20 09:29:14;;;;;;;39.38;23.65;;;0.50;99.90;;;;;;4987249;28;20506;-63
2023/01/20 09:31:47;;;;;;;42.28;24.92;;;0.40;99.90;;;;;;4986513;28;20421;-63
2023/01/20 09:34:20;;;;;;;33.28;19.67;;;0.30;99.90;;;;;;4985960;28;20121;-63
2023/01/20 09:36:53;;;;;;;41.35;23.35;;;0.30;99.90;;;;;;4986271;28;20660;-63
2023/01/20 09:45:25;;;;;;;36.50;20.30;;;0.80;99.90;;;;;;4986232;28;20113;-63
2023/01/20 09:48:01;;;;;;;40.97;25.95;;;0.60;99.90;;;;;;4977457;28;20054;-62
2023/01/20 09:53:55;;;;;;;36.63;21.48;;;0.30;99.90;;;;;;4985281;28;20133;-63
2023/01/20 09:56:24;;;;;;;36.08;22.00;;;0.30;99.90;;;;;;4985589;28;20146;-62
2023/01/20 09:59:09;;;;;;;30.40;16.25;;;0.90;99.90;;;;;;4985616;28;20117;-59
2023/01/20 10:01:41;;;;;;;26.85;14.38;;;1.40;99.90;;;;;;4985862;28;20058;-63
2023/01/20 10:04:31;;;;;;;37.20;22.58;;;0.50;99.90;;;;;;4984636;28;20513;-62
2023/01/20 10:07:08;;;;;;;36.63;23.35;;;0.70;99.90;;;;;;4980643;28;20042;-63
2023/01/20 10:09:43;;;;;;;35.08;20.33;;;0.90;99.90;;;;;;4984704;28;20479;-62
2023/01/20 10:12:11;;;;;;;;;;;0.90;99.90;;;;;;4985589;28;20070;-62
2023/01/20 10:14:47;;;;;;;28.77;17.35;;;0.90;99.90;;;;;;4982954;28;19921;-64
2023/01/20 10:17:22;;;;;;;32.90;19.38;;;0.80;99.90;;;;;;4983368;28;20125;-61
2023/01/20 10:20:02;;;;;;;26.35;15.43;;;0.60;99.90;;;;;;4984418;28;20074;-63
2023/01/20 10:22:39;;;;;;;37.97;23.60;;;0.80;99.90;;;;;;4984340;28;20098;-64
2023/01/20 10:25:19;;;;;;;33.78;19.60;;;0.60;99.90;;;;;;4983536;28;20026;-61
2023/01/20 10:27:52;;;;;;;32.38;17.70;;;0.90;99.90;;;;;;4985302;28;20050;-63
2023/01/20 10:30:22;;;;;;;22.15;12.00;;;0.40;99.90;;;;;;4985483;28;20042;-63
2023/01/20 10:33:02;;;;;;;33.63;17.83;;;0.80;99.90;;;;;;4984839;28;20054;-62
2023/01/20 10:35:35;;;;;;;35.20;18.45;;;0.40;99.90;;;;;;4985101;28;20198;-62
2023/01/20 10:38:05;;;;;;;37.03;21.17;;;0.90;99.90;;;;;;4985114;28;20061;-62
2023/01/20 10:40:42;;;;;;;34.92;19.15;;;1.00;99.90;;;;;;4984956;28;20482;-63
2023/01/20 10:43:13;;;;;;;33.50;18.73;;;1.00;99.90;;;;;;4982365;28;20438;-62
2023/01/20 10:45:44;;;;;;;29.02;16.40;;;1.20;99.90;;;;;;4981082;28;20576;-62
2023/01/20 10:48:57;;;;;;;32.55;19.08;;;0.40;99.90;;;;;;4984001;28;20077;-60
2023/01/20 10:51:37;;;;;;;27.08;14.23;;;0.90;99.90;;;;;;4984884;28;20054;-61
2023/01/20 10:54:30;;;;;;;34.03;21.90;;;0.20;99.90;;;;;;4984172;28;20499;-62
2023/01/20 10:56:58;;;;;;;37.30;21.45;;;0.70;99.90;;;;;;4984136;28;20086;-62
2023/01/20 10:59:34;;;;;;;32.60;19.00;;;1.30;99.90;;;;;;4984832;28;20403;-63
2023/01/20 11:02:21;;;;;;;34.58;22.48;;;0.60;99.90;;;;;;4984781;28;20523;-62
2023/01/20 11:04:54;;;;;;;25.17;13.77;;;1.20;99.90;;;;;;4983575;28;20093;-63
2023/01/20 11:07:19;;;;;;;32.50;21.40;;;0.30;99.90;;;;;;4983342;28;20380;-62
2023/01/20 11:09:47;;;;;;;36.65;20.77;;;0.70;99.90;;;;;;4984605;28;20531;-62
2023/01/20 11:12:20;;;;;;;31.05;16.27;;;2.10;99.90;;;;;;4984239;28;20507;-60
2023/01/20 11:14:47;;;;;;;31.30;16.80;;;0.40;99.90;;;;;;4984652;28;20050;-59
2023/01/20 11:17:16;;;;;;;35.65;21.20;;;0.90;99.90;;;;;;4984590;28;20406;-62
2023/01/20 11:19:49;;;;;;;28.05;15.88;;;0.90;99.90;;;;;;4983813;28;20042;-57
2023/01/20 11:22:22;;;;;;;27.23;15.02;;;0.90;99.90;;;;;;4984505;28;20108;-62
2023/01/20 11:24:53;;;;;;;31.85;17.75;;;0.40;99.90;;;;;;4983023;28;20042;-60
2023/01/20 11:27:22;;;;;;;32.92;19.55;;;0.60;99.90;;;;;;4984415;28;20050;-60
2023/01/20 11:29:56;;;;;;;38.60;25.23;;;1.00;99.90;;;;;;4984456;28;20046;-62
2023/01/20 11:32:28;;;;;;;35.97;22.40;;;1.00;99.90;;;;;;4984305;28;20093;-62
2023/01/20 11:34:55;;;;;;;38.03;24.23;;;1.10;99.90;;;;;;4983884;28;20042;-63
2023/01/20 11:37:28;;;;;;;37.55;22.20;;;0.60;99.90;;;;;;4984054;28;20069;-62
2023/01/20 11:40:03;;;;;;;36.72;23.80;;;0.60;99.90;;;;;;4984386;28;20461;-62
2023/01/20 11:42:41;;;;;;;39.95;24.48;;;1.10;99.90;;;;;;4983836;28;20116;-62
2023/01/20 11:45:23;;;;;;;34.28;21.88;;;0.60;99.90;;;;;;4983957;28;20049;-61
2023/01/20 11:48:00;;;;;;;37.40;23.70;;;0.60;99.90;;;;;;4984310;28;20050;-64
2023/01/20 11:50:44;;;;;;;36.88;21.90;;;1.10;99.90;;;;;;4984796;28;20049;-63
2023/01/20 11:53:39;;;;;;;32.70;20.80;;;0.90;99.90;;;;;;4983368;28;20050;-63
2023/01/20 11:56:19;;;;;;;34.70;19.75;;;1.30;99.90;;;;;;4987479;28;20050;-60
2023/01/20 11:58:51;;;;;;;32.53;19.67;;;0.80;99.90;;;;;;4988070;28;20046;-63
2023/01/20 12:01:25;;;;;;;37.33;23.08;;;0.70;99.90;;;;;;4987949;28;20082;-63
2023/01/20 12:04:18;;;;;;;35.03;19.73;;;0.80;99.90;;;;;;4986061;28;20406;-62
2023/01/20 12:07:02;;;;;;;37.90;23.15;;;0.70;99.90;;;;;;4985724;28;20042;-63
2023/01/20 12:09:37;;;;;;;35.67;21.63;;;0.60;99.90;;;;;;4985343;28;20196;-62
2023/01/20 12:12:12;;;;;;;38.20;22.90;;;2.00;99.90;;;;;;4988547;28;20186;-62
2023/01/20 12:14:45;;;;;;;36.35;23.17;;;1.20;99.90;;;;;;4987834;28;20082;-61
2023/01/20 12:18:05;;;;;;;33.70;21.15;;;1.30;99.90;;;;;;4988383;28;20046;-62
2023/01/20 12:20:54;;;;;;;31.42;20.67;;;1.20;99.90;;;;;;4965688;28;20150;-61
2023/01/20 12:23:44;;;;;;;33.80;21.85;;;0.70;99.90;;;;;;4984920;28;20065;-62
2023/01/20 12:26:12;;;;;;;36.88;23.15;;;0.70;99.90;;;;;;4986638;28;20439;-62
2023/01/20 12:28:57;;;;;;;34.88;20.92;;;0.70;99.90;;;;;;4988347;28;20066;-62
2023/01/20 12:31:24;;;;;;;36.03;22.70;;;0.80;99.90;;;;;;4987913;28;20526;-62
2023/01/20 12:33:54;;;;;;;32.13;20.17;;;1.20;99.90;;;;;;4986304;28;20086;-63
2023/01/20 12:36:37;;;;;;;30.77;18.23;;;1.10;99.90;;;;;;4987774;28;20054;-63
2023/01/20 12:39:09;;;;;;;34.67;19.65;;;1.00;99.90;;;;;;4987588;28;20121;-63
2023/01/20 12:41:43;;;;;;;35.20;20.20;;;1.90;99.90;;;;;;4987290;28;20042;-62
2023/01/20 12:44:24;;;;;;;33.95;21.45;;;1.10;99.90;;;;;;4987152;28;20042;-62
2023/01/20 12:47:15;;;;;;;34.63;20.92;;;1.40;99.90;;;;;;4987349;28;20038;-63
2023/01/20 12:49:41;;;;;;;31.08;19.58;;;0.70;99.90;;;;;;4986942;28;20042;-63
2023/01/20 12:52:19;;;;;;;27.58;13.10;;;1.50;99.90;;;;;;4986088;28;20132;-63
2023/01/20 12:55:13;;;;;;;35.33;22.00;;;0.90;99.90;;;;;;4987592;28;20388;-63
2023/01/20 12:57:48;;;;;;;35.42;21.58;;;1.30;99.90;;;;;;4987200;28;20423;-62
2023/01/20 13:00:46;;;;;;;36.22;22.35;;;1.20;99.90;;;;;;4987245;28;20085;-63
2023/01/20 13:03:33;;;;;;;37.60;22.95;;;0.80;99.90;;;;;;4986870;28;20415;-63
2023/01/20 13:06:04;;;;;;;37.10;23.75;;;0.70;99.90;;;;;;4986643;28;20053;-63
2023/01/20 13:09:18;;;;;;;39.13;23.70;;;1.20;99.90;;;;;;4987367;28;20051;-62